createdAt,value
2022-07-25T00:01:31.077Z,5.23
2022-07-25T00:03:33.337Z,7.70
2022-07-25T00:05:37.941Z,4.70
2022-07-25T00:07:40.310Z,4.20
2022-07-25T00:09:42.508Z,4.10
2022-07-25T00:11:44.699Z,10.90
2022-07-25T00:13:47.090Z,4.50
2022-07-25T00:15:49.561Z,6.70
2022-07-25T00:17:51.727Z,3.90
2022-07-25T00:19:53.901Z,4.67
2022-07-25T00:21:56.068Z,5.60
2022-07-25T00:23:58.244Z,4.50
2022-07-25T00:26:00.494Z,4.50
2022-07-25T00:28:02.729Z,4.70
2022-07-25T00:30:05.871Z,4.40
2022-07-25T00:32:08.205Z,4.93
2022-07-25T00:34:10.826Z,4.10
2022-07-25T00:36:13.697Z,5.03
2022-07-25T00:38:15.964Z,11.30
2022-07-25T00:40:18.182Z,4.87
2022-07-25T00:42:21.879Z,7.17
2022-07-25T00:44:26.255Z,6.03
2022-07-25T00:46:28.514Z,4.97
2022-07-25T00:48:30.855Z,4.87
2022-07-25T00:50:33.052Z,5.10
2022-07-25T00:52:35.348Z,4.60
2022-07-25T00:54:37.650Z,5.33
2022-07-25T00:56:39.941Z,4.70
2022-07-25T00:58:42.028Z,5.83
2022-07-25T01:00:44.431Z,7.10
2022-07-25T01:02:46.738Z,5.07
2022-07-25T01:04:48.881Z,4.17
2022-07-25T01:06:51.581Z,5.60
2022-07-25T01:08:54.606Z,4.73
2022-07-25T01:10:56.774Z,4.57
2022-07-25T01:12:59.048Z,5.47
2022-07-25T01:15:01.285Z,4.20
2022-07-25T01:17:03.598Z,6.30
2022-07-25T01:19:05.760Z,5.13
2022-07-25T01:21:07.994Z,4.50
2022-07-25T01:23:10.124Z,5.10
2022-07-25T01:25:13.358Z,4.73
2022-07-25T01:27:17.526Z,4.87
2022-07-25T01:29:19.812Z,4.87
2022-07-25T01:31:22.390Z,5.90
2022-07-25T01:33:24.786Z,4.77
2022-07-25T01:35:26.908Z,4.40
2022-07-25T01:37:29.065Z,4.90
2022-07-25T01:39:31.307Z,4.97
2022-07-25T01:41:33.629Z,6.10
2022-07-25T01:43:35.764Z,6.20
2022-07-25T01:45:38.100Z,8.33
2022-07-25T01:47:40.744Z,5.27
2022-07-25T01:49:44.224Z,5.97
2022-07-25T01:51:46.456Z,6.30
2022-07-25T01:53:49.867Z,12.30
2022-07-25T01:55:52.185Z,5.27
2022-07-25T01:57:54.464Z,5.20
2022-07-25T01:59:56.587Z,6.30
2022-07-25T02:01:59.042Z,5.80
2022-07-25T02:04:01.398Z,8.03
2022-07-25T02:06:06.696Z,5.90
2022-07-25T02:08:08.893Z,5.70
2022-07-25T02:10:13.573Z,5.40
2022-07-25T02:12:15.768Z,5.03
2022-07-25T02:14:17.920Z,7.47
2022-07-25T02:16:20.190Z,7.40
2022-07-25T02:18:31.505Z,5.23
2022-07-25T02:20:33.813Z,5.20
2022-07-25T02:22:35.929Z,6.80
2022-07-25T02:24:38.235Z,9.00
2022-07-25T02:26:40.565Z,5.37
2022-07-25T02:28:42.778Z,5.03
2022-07-25T02:30:44.964Z,5.40
2022-07-25T02:32:47.106Z,6.53
2022-07-25T02:34:49.305Z,7.23
2022-07-25T02:36:51.511Z,5.00
2022-07-25T02:38:53.756Z,5.67
2022-07-25T02:40:56.194Z,5.30
2022-07-25T02:42:58.429Z,7.43
2022-07-25T02:45:00.701Z,5.13
2022-07-25T02:47:03.009Z,5.13
2022-07-25T02:49:06.641Z,5.10
2022-07-25T02:51:09.151Z,8.63
2022-07-25T02:53:11.275Z,5.23
2022-07-25T02:55:13.463Z,6.07
2022-07-25T02:57:16.032Z,6.97
2022-07-25T02:59:18.622Z,5.33
2022-07-25T03:01:20.983Z,9.70
2022-07-25T03:03:23.359Z,5.60
2022-07-25T03:05:25.899Z,6.60
2022-07-25T03:07:28.384Z,6.83
2022-07-25T03:09:30.598Z,6.13
2022-07-25T03:11:34.737Z,6.80
2022-07-25T03:13:36.838Z,5.37
2022-07-25T03:15:39.012Z,6.60
2022-07-25T03:17:41.218Z,4.87
2022-07-25T03:19:43.365Z,6.00
2022-07-25T03:21:46.245Z,5.17
2022-07-25T03:23:52.481Z,5.20
2022-07-25T03:25:55.860Z,5.40
2022-07-25T03:27:58.094Z,6.53
2022-07-25T03:30:00.291Z,5.80
2022-07-25T03:32:02.679Z,5.00
2022-07-25T03:34:05.194Z,4.63
2022-07-25T03:36:07.904Z,7.17
2022-07-25T03:38:10.017Z,7.27
2022-07-25T03:40:13.123Z,5.00
2022-07-25T03:42:16.053Z,8.27
2022-07-25T03:44:18.322Z,4.60
2022-07-25T03:46:20.634Z,5.30
2022-07-25T03:48:23.125Z,4.37
2022-07-25T03:50:25.304Z,5.40
2022-07-25T03:52:27.508Z,6.03
2022-07-25T03:54:29.729Z,5.10
2022-07-25T03:56:45.889Z,5.10
2022-07-25T03:58:48.226Z,7.27
2022-07-25T04:00:50.424Z,5.03
2022-07-25T04:02:53.109Z,5.20
2022-07-25T04:04:55.296Z,9.07
2022-07-25T04:06:57.519Z,5.60
2022-07-25T04:08:59.874Z,8.47
2022-07-25T04:11:02.012Z,5.60
2022-07-25T04:13:04.288Z,4.77
2022-07-25T04:15:07.005Z,5.67
2022-07-25T04:17:09.210Z,5.30
2022-07-25T04:19:12.061Z,7.70
2022-07-25T04:21:14.576Z,9.90
2022-07-25T04:23:16.691Z,5.97
2022-07-25T04:25:18.934Z,7.13
2022-07-25T04:27:21.078Z,6.23
2022-07-25T04:29:23.199Z,4.70
2022-07-25T04:31:26.168Z,5.10
2022-07-25T04:33:28.889Z,5.30
2022-07-25T04:35:31.063Z,6.60
2022-07-25T04:37:33.347Z,5.73
2022-07-25T04:39:35.866Z,5.23
2022-07-25T04:41:38.097Z,5.30
2022-07-25T04:43:43.625Z,7.47
2022-07-25T04:45:48.662Z,4.90
2022-07-25T04:47:50.846Z,5.93
2022-07-25T04:49:53.021Z,5.67
2022-07-25T04:51:55.134Z,6.00
2022-07-25T04:53:57.286Z,5.07
2022-07-25T04:55:59.417Z,7.80
2022-07-25T04:58:01.663Z,9.03
2022-07-25T05:00:08.769Z,6.60
2022-07-25T05:02:11.102Z,6.10
2022-07-25T05:04:13.360Z,4.83
2022-07-25T05:06:15.677Z,6.30
2022-07-25T05:08:18.945Z,8.30
2022-07-25T05:10:21.187Z,8.33
2022-07-25T05:12:23.595Z,6.93
2022-07-25T05:14:25.807Z,6.53
2022-07-25T05:16:28.061Z,5.37
2022-07-25T05:18:30.219Z,5.70
2022-07-25T05:20:32.432Z,5.10
2022-07-25T05:22:34.662Z,7.33
2022-07-25T05:24:37.685Z,5.00
2022-07-25T05:26:40.657Z,6.47
2022-07-25T05:28:42.891Z,5.00
2022-07-25T05:30:45.094Z,9.80
2022-07-25T05:32:47.257Z,9.03
2022-07-25T05:34:50.144Z,6.00
2022-07-25T05:36:52.252Z,6.03
2022-07-25T05:38:54.656Z,6.43
2022-07-25T05:40:57.010Z,5.90
2022-07-25T05:43:02.989Z,5.80
2022-07-25T05:45:07.355Z,6.50
2022-07-25T05:47:11.159Z,5.33
2022-07-25T05:49:13.537Z,5.40
2022-07-25T05:51:15.745Z,4.77
2022-07-25T05:53:17.868Z,8.57
2022-07-25T05:55:20.093Z,8.03
2022-07-25T05:57:22.522Z,7.13
2022-07-25T05:59:24.692Z,7.90
2022-07-25T06:01:27.080Z,5.70
2022-07-25T06:03:29.672Z,6.03
2022-07-25T06:05:31.951Z,6.87
2022-07-25T06:07:34.116Z,5.17
2022-07-25T06:09:36.399Z,5.20
2022-07-25T06:11:51.126Z,4.60
2022-07-25T06:14:00.556Z,7.20
2022-07-25T06:16:02.801Z,9.13
2022-07-25T06:18:05.163Z,8.33
2022-07-25T06:20:07.899Z,6.40
2022-07-25T06:22:11.520Z,8.23
2022-07-25T06:24:13.737Z,6.00
2022-07-25T06:26:16.030Z,9.50
2022-07-25T06:28:18.490Z,9.80
2022-07-25T06:30:20.877Z,6.17
2022-07-25T06:32:23.088Z,7.37
2022-07-25T06:34:28.610Z,5.97
2022-07-25T06:36:32.780Z,8.73
2022-07-25T06:38:36.890Z,6.27
2022-07-25T06:40:39.030Z,6.23
2022-07-25T06:42:42.896Z,6.87
2022-07-25T06:44:45.364Z,9.63
2022-07-25T06:46:47.737Z,7.87
2022-07-25T06:48:52.562Z,9.13
2022-07-25T06:50:54.755Z,10.80
2022-07-25T06:52:56.986Z,6.80
2022-07-25T06:54:59.103Z,9.17
2022-07-25T06:57:01.732Z,9.13
2022-07-25T06:59:03.872Z,6.60
2022-07-25T07:01:06.501Z,7.77
2022-07-25T07:03:08.920Z,9.20
2022-07-25T07:05:11.101Z,10.23
2022-07-25T07:07:13.338Z,7.67
2022-07-25T07:09:15.495Z,9.70
2022-07-25T07:11:17.637Z,9.30
2022-07-25T07:13:24.095Z,16.37
2022-07-25T07:15:26.883Z,7.40
2022-07-25T07:17:29.072Z,8.10
2022-07-25T07:19:31.318Z,6.77
2022-07-25T07:21:34.551Z,8.03
2022-07-25T07:23:36.687Z,7.63
2022-07-25T07:25:40.428Z,7.50
2022-07-25T07:27:46.042Z,8.03
2022-07-25T07:29:48.283Z,11.03
2022-07-25T07:31:50.712Z,8.00
2022-07-25T07:33:52.974Z,7.87
2022-07-25T07:35:57.095Z,9.97
2022-07-25T07:37:59.340Z,7.43
2022-07-25T07:40:01.525Z,7.10
2022-07-25T07:42:03.815Z,7.80
2022-07-25T07:44:06.098Z,7.93
2022-07-25T07:46:08.815Z,9.47
2022-07-25T07:48:11.882Z,16.33
2022-07-25T07:50:15.475Z,9.23
2022-07-25T07:52:17.636Z,7.80
2022-07-25T07:54:38.535Z,9.07
2022-07-25T07:56:41.983Z,9.97
2022-07-25T07:58:44.180Z,7.60
2022-07-25T08:00:48.760Z,7.70
2022-07-25T08:02:52.748Z,11.00
2022-07-25T08:04:54.932Z,7.87
2022-07-25T08:06:57.051Z,8.70
2022-07-25T08:08:59.175Z,8.53
2022-07-25T08:11:01.426Z,10.10
2022-07-25T08:13:21.896Z,8.43
2022-07-25T08:15:24.028Z,7.77
2022-07-25T08:17:28.670Z,12.70
2022-07-25T08:19:31.084Z,10.33
2022-07-25T08:21:33.311Z,12.23
2022-07-25T08:23:39.165Z,7.77
2022-07-25T08:25:41.752Z,9.70
2022-07-25T08:27:44.640Z,14.80
2022-07-25T08:29:46.767Z,11.10
2022-07-25T08:31:49.242Z,11.53
2022-07-25T08:33:51.517Z,9.73
2022-07-25T08:35:55.034Z,7.87
2022-07-25T08:37:58.144Z,8.27
2022-07-25T08:40:00.278Z,7.77
2022-07-25T08:42:05.473Z,12.40
2022-07-25T08:44:13.331Z,11.10
2022-07-25T08:46:16.177Z,7.47
2022-07-25T08:48:20.325Z,8.00
2022-07-25T08:50:25.164Z,10.97
2022-07-25T08:52:27.610Z,11.23
2022-07-25T08:54:31.615Z,8.17
2022-07-25T08:56:33.723Z,9.97
2022-07-25T08:58:36.137Z,9.47
2022-07-25T09:00:39.141Z,7.90
2022-07-25T09:02:41.411Z,8.50
2022-07-25T09:04:44.068Z,9.80
2022-07-25T09:06:50.651Z,8.03
2022-07-25T09:08:57.687Z,8.67
2022-07-25T09:10:59.896Z,10.10
2022-07-25T09:13:08.515Z,8.70
2022-07-25T09:15:10.839Z,10.13
2022-07-25T09:17:21.876Z,8.23
2022-07-25T09:19:26.683Z,7.67
2022-07-25T09:21:29.173Z,7.90
2022-07-25T09:23:39.239Z,9.23
2022-07-25T09:25:42.071Z,9.27
2022-07-25T09:27:44.268Z,8.70
2022-07-25T09:29:46.513Z,8.47
2022-07-25T09:31:49.129Z,8.67
2022-07-25T09:34:01.582Z,8.00
2022-07-25T09:36:11.074Z,7.83
2022-07-25T09:38:15.378Z,8.40
2022-07-25T09:40:17.648Z,7.90
2022-07-25T09:42:36.461Z,8.87
2022-07-25T09:44:38.654Z,11.53
2022-07-25T09:46:40.806Z,8.00
2022-07-25T09:48:45.168Z,8.23
2022-07-25T09:50:47.771Z,8.03
2022-07-25T09:52:52.398Z,8.20
2022-07-25T09:54:54.970Z,8.43
2022-07-25T09:56:57.094Z,10.23
2022-07-25T09:59:01.527Z,7.47
2022-07-25T10:01:06.389Z,6.83
2022-07-25T10:03:15.872Z,12.00
2022-07-25T10:05:23.944Z,7.27
2022-07-25T10:07:31.173Z,7.57
2022-07-25T10:09:33.985Z,9.43
2022-07-25T10:11:36.165Z,8.73
2022-07-25T10:13:39.253Z,9.20
2022-07-25T10:15:50.188Z,9.57
2022-07-25T10:18:03.192Z,10.03
2022-07-25T10:20:07.792Z,12.53
2022-07-25T10:22:10.618Z,10.40
2022-07-25T10:24:13.366Z,12.83
2022-07-25T10:26:19.753Z,8.67
2022-07-25T10:28:21.948Z,9.90
2022-07-25T10:30:29.286Z,8.53
2022-07-25T10:32:35.358Z,8.50
2022-07-25T10:34:38.911Z,7.50
2022-07-25T10:36:48.910Z,7.53
2022-07-25T10:38:53.026Z,8.13
2022-07-25T10:40:56.324Z,6.80
2022-07-25T10:43:02.894Z,14.33
2022-07-25T10:45:09.486Z,7.77
2022-07-25T10:47:13.325Z,8.67
2022-07-25T10:49:31.689Z,7.03
2022-07-25T10:51:41.304Z,7.93
2022-07-25T10:53:47.045Z,6.67
2022-07-25T10:56:05.679Z,10.30
2022-07-25T10:58:17.468Z,8.70
2022-07-25T11:00:20.741Z,7.27
2022-07-25T11:02:24.206Z,7.17
2022-07-25T11:04:26.539Z,6.87
2022-07-25T11:06:30.827Z,6.67
2022-07-25T11:08:33.887Z,8.20
2022-07-25T11:10:36.407Z,9.70
2022-07-25T11:12:38.699Z,7.30
2022-07-25T11:14:42.800Z,8.57
2022-07-25T11:16:45.944Z,6.80
2022-07-25T11:18:49.554Z,8.20
2022-07-25T11:21:02.972Z,9.87
2022-07-25T11:23:08.516Z,7.30
2022-07-25T11:25:14.769Z,6.93
2022-07-25T11:27:35.610Z,7.83
2022-07-25T11:29:38.891Z,7.10
2022-07-25T11:31:41.097Z,6.77
2022-07-25T11:33:46.613Z,19.33
2022-07-25T11:35:48.862Z,6.97
2022-07-25T11:37:52.229Z,7.40
2022-07-25T11:39:56.264Z,7.33
2022-07-25T11:42:10.985Z,9.03
2022-07-25T11:44:13.320Z,8.50
2022-07-25T11:46:18.581Z,7.23
2022-07-25T11:48:22.940Z,7.30
2022-07-25T11:50:30.141Z,7.80
2022-07-25T11:52:36.789Z,7.20
2022-07-25T11:54:39.159Z,9.27
2022-07-25T11:56:43.228Z,8.07
2022-07-25T11:58:59.096Z,9.23
2022-07-25T12:01:01.422Z,7.80
2022-07-25T12:03:08.658Z,6.90
2022-07-25T12:05:14.617Z,7.27
2022-07-25T12:07:16.744Z,7.13
2022-07-25T12:09:21.227Z,6.80
2022-07-25T12:11:23.576Z,8.13
2022-07-25T12:13:27.998Z,7.60
2022-07-25T12:15:37.045Z,10.37
2022-07-25T12:17:39.181Z,7.00
2022-07-25T12:19:46.192Z,8.13
2022-07-25T12:21:48.335Z,7.93
2022-07-25T12:23:50.567Z,11.47
2022-07-25T12:25:52.862Z,7.70
2022-07-25T12:27:55.307Z,8.03
2022-07-25T12:29:58.119Z,8.60
2022-07-25T12:32:00.800Z,11.93
2022-07-25T12:34:03.594Z,6.87
2022-07-25T12:36:08.562Z,6.83
2022-07-25T12:38:11.437Z,7.73
2022-07-25T12:40:14.827Z,6.73
2022-07-25T12:42:17.096Z,7.73
2022-07-25T12:44:19.576Z,8.20
2022-07-25T12:46:21.746Z,7.43
2022-07-25T12:48:23.983Z,10.97
2022-07-25T12:50:26.208Z,6.30
2022-07-25T12:52:28.446Z,7.53
2022-07-25T12:54:30.836Z,9.57
2022-07-25T12:56:33.338Z,7.13
2022-07-25T12:58:36.615Z,7.17
2022-07-25T13:00:38.862Z,7.53
2022-07-25T13:02:41.790Z,6.77
2022-07-25T13:04:44.271Z,7.00
2022-07-25T13:06:46.513Z,7.80
2022-07-25T13:08:48.872Z,7.53
2022-07-25T13:10:51.095Z,7.53
2022-07-25T13:12:53.349Z,7.07
2022-07-25T13:14:55.557Z,6.43
2022-07-25T13:16:57.878Z,6.37
2022-07-25T13:19:00.103Z,7.73
2022-07-25T13:21:04.167Z,8.80
2022-07-25T13:23:06.333Z,7.80
2022-07-25T13:25:08.557Z,7.57
2022-07-25T13:27:10.695Z,7.13
2022-07-25T13:29:12.992Z,8.80
2022-07-25T13:31:15.246Z,7.67
2022-07-25T13:33:17.412Z,8.57
2022-07-25T13:35:21.924Z,7.27
2022-07-25T13:37:25.510Z,8.87
2022-07-25T13:39:28.043Z,7.77
2022-07-25T13:41:30.278Z,8.00
2022-07-25T13:43:32.377Z,7.20
2022-07-25T13:45:34.639Z,7.67
2022-07-25T13:47:36.888Z,7.60
2022-07-25T13:49:39.479Z,8.20
2022-07-25T13:51:41.676Z,7.00
2022-07-25T13:53:44.979Z,7.13
2022-07-25T13:55:48.410Z,7.50
2022-07-25T13:57:50.700Z,7.53
2022-07-25T13:59:52.931Z,12.33
2022-07-25T14:01:55.217Z,8.37
2022-07-25T14:03:57.633Z,7.13
2022-07-25T14:05:59.850Z,7.43
2022-07-25T14:08:02.087Z,7.30
2022-07-25T14:10:05.983Z,7.50
2022-07-25T14:12:08.354Z,8.00
2022-07-25T14:14:10.680Z,6.70
2022-07-25T14:16:16.521Z,8.13
2022-07-25T14:18:18.813Z,7.20
2022-07-25T14:20:20.900Z,6.70
2022-07-25T14:22:23.027Z,8.00
2022-07-25T14:24:25.131Z,6.67
2022-07-25T14:26:28.404Z,8.00
2022-07-25T14:28:30.595Z,7.23
2022-07-25T14:30:32.700Z,6.80
2022-07-25T14:32:35.400Z,6.30
2022-07-25T14:34:40.529Z,7.33
2022-07-25T14:36:44.575Z,8.83
2022-07-25T14:38:48.362Z,7.00
2022-07-25T14:40:50.823Z,6.83
2022-07-25T14:42:53.101Z,6.50
2022-07-25T14:44:55.284Z,7.20
2022-07-25T14:46:57.457Z,13.07
2022-07-25T14:48:59.809Z,6.57
2022-07-25T14:51:01.958Z,6.47
2022-07-25T14:53:04.239Z,7.63
2022-07-25T14:55:07.168Z,7.37
2022-07-25T14:57:10.309Z,7.40
2022-07-25T14:59:12.514Z,8.10
2022-07-25T15:01:18.726Z,10.37
2022-07-25T15:03:21.349Z,7.00
2022-07-25T15:05:23.547Z,8.50
2022-07-25T15:07:25.639Z,7.53
2022-07-25T15:09:28.341Z,8.80
2022-07-25T15:11:30.725Z,7.03
2022-07-25T15:13:33.203Z,7.17
2022-07-25T15:15:36.485Z,7.73
2022-07-25T15:17:40.002Z,7.23
2022-07-25T15:19:42.244Z,7.47
2022-07-25T15:21:44.677Z,7.67
2022-07-25T15:23:46.866Z,10.00
2022-07-25T15:26:04.918Z,7.10
2022-07-25T15:28:07.241Z,7.20
2022-07-25T15:30:09.825Z,7.33
2022-07-25T15:32:12.603Z,8.53
2022-07-25T15:34:14.965Z,8.00
2022-07-25T15:36:17.126Z,8.00
2022-07-25T15:38:19.336Z,8.00
2022-07-25T15:40:21.781Z,7.83
2022-07-25T15:42:28.851Z,7.83
2022-07-25T15:44:32.739Z,7.77
2022-07-25T15:46:35.020Z,7.70
2022-07-25T15:48:37.266Z,8.43
2022-07-25T15:50:42.924Z,8.67
2022-07-25T15:52:45.153Z,7.97
2022-07-25T15:54:47.403Z,7.07
2022-07-25T15:56:49.739Z,7.67
2022-07-25T15:58:52.139Z,7.80
2022-07-25T16:00:54.479Z,6.93
2022-07-25T16:02:56.782Z,7.00
2022-07-25T16:04:58.883Z,7.70
2022-07-25T16:07:01.108Z,8.73
2022-07-25T16:09:04.405Z,6.70
2022-07-25T16:11:06.884Z,20.00
2022-07-25T16:13:09.065Z,19.97
2022-07-25T16:15:11.656Z,45.03
2022-07-25T16:17:13.797Z,23.13
2022-07-25T16:19:15.952Z,9.47
2022-07-25T16:21:18.285Z,7.90
2022-07-25T16:23:20.524Z,12.60
2022-07-25T16:25:23.842Z,8.97
2022-07-25T16:27:25.939Z,8.30
2022-07-25T16:29:28.655Z,10.17
2022-07-25T16:31:31.040Z,9.83
2022-07-25T16:33:33.274Z,13.37
2022-07-25T16:35:35.855Z,13.50
2022-07-25T16:37:38.175Z,13.47
2022-07-25T16:39:40.948Z,10.87
2022-07-25T16:41:44.024Z,9.17
2022-07-25T16:43:46.236Z,8.50
2022-07-25T16:45:48.671Z,9.63
2022-07-25T16:47:50.788Z,10.30
2022-07-25T16:49:52.976Z,11.03
2022-07-25T16:51:55.221Z,12.70
2022-07-25T16:53:57.356Z,10.57
2022-07-25T16:55:59.645Z,8.57
2022-07-25T16:58:01.846Z,10.17
2022-07-25T17:00:09.379Z,9.93
2022-07-25T17:02:11.575Z,10.07
2022-07-25T17:04:13.806Z,9.23
2022-07-25T17:06:16.422Z,10.50
2022-07-25T17:08:18.629Z,10.67
2022-07-25T17:10:21.617Z,9.87
2022-07-25T17:12:24.120Z,9.17
2022-07-25T17:14:29.979Z,7.30
2022-07-25T17:16:32.665Z,9.60
2022-07-25T17:18:36.394Z,11.80
2022-07-25T17:20:38.492Z,10.37
2022-07-25T17:22:40.675Z,10.73
2022-07-25T17:24:42.729Z,9.97
2022-07-25T17:26:45.028Z,9.63
2022-07-25T17:28:49.186Z,12.30
2022-07-25T17:30:51.606Z,8.87
2022-07-25T17:32:54.016Z,12.87
2022-07-25T17:34:56.104Z,9.67
2022-07-25T17:37:02.693Z,8.50
2022-07-25T17:39:05.442Z,7.97
2022-07-25T17:41:07.872Z,7.57
2022-07-25T17:43:09.997Z,13.10
2022-07-25T17:45:12.591Z,13.50
2022-07-25T17:47:14.858Z,7.90
2022-07-25T17:49:17.112Z,8.17
2022-07-25T17:51:19.608Z,7.80
2022-07-25T17:53:21.867Z,7.10
2022-07-25T17:55:23.991Z,9.60
2022-07-25T17:57:30.813Z,8.00
2022-07-25T17:59:34.542Z,9.13
2022-07-25T18:01:36.726Z,8.73
2022-07-25T18:03:38.930Z,9.53
2022-07-25T18:05:41.082Z,7.00
2022-07-25T18:07:49.427Z,10.90
2022-07-25T18:09:51.805Z,8.37
2022-07-25T18:11:54.917Z,9.13
2022-07-25T18:13:57.057Z,8.17
2022-07-25T18:15:59.204Z,10.80
2022-07-25T18:18:01.450Z,10.17
2022-07-25T18:20:04.082Z,11.13
2022-07-25T18:22:06.523Z,8.83
2022-07-25T18:24:09.052Z,10.40
2022-07-25T18:26:11.526Z,10.10
2022-07-25T18:28:13.826Z,11.60
2022-07-25T18:30:16.941Z,8.20
2022-07-25T18:32:19.098Z,9.57
2022-07-25T18:34:21.239Z,9.80
2022-07-25T18:36:23.554Z,11.57
2022-07-25T18:38:25.682Z,10.13
2022-07-25T18:40:28.062Z,10.10
2022-07-25T18:42:30.341Z,9.73
2022-07-25T18:44:32.534Z,9.60
2022-07-25T18:46:35.010Z,9.10
2022-07-25T18:48:37.973Z,14.90
2022-07-25T18:50:40.499Z,11.20
2022-07-25T18:52:42.596Z,16.43
2022-07-25T18:54:44.708Z,14.83
2022-07-25T18:56:46.854Z,10.03
2022-07-25T18:58:49.080Z,11.07
2022-07-25T19:00:51.876Z,11.30
2022-07-25T19:02:54.020Z,11.10
2022-07-25T19:04:56.187Z,13.80
2022-07-25T19:06:58.489Z,10.70
2022-07-25T19:09:00.600Z,10.50
2022-07-25T19:11:02.857Z,10.30
2022-07-25T19:13:05.029Z,14.77
2022-07-25T19:15:07.737Z,9.97
2022-07-25T19:17:10.029Z,11.80
2022-07-25T19:19:12.195Z,11.00
2022-07-25T19:21:14.456Z,12.70
2022-07-25T19:23:16.563Z,10.10
2022-07-25T19:25:19.009Z,13.00
2022-07-25T19:27:23.948Z,11.13
2022-07-25T19:29:26.892Z,12.67
2022-07-25T19:31:29.167Z,11.67
2022-07-25T19:33:35.976Z,10.80
2022-07-25T19:35:38.739Z,10.57
2022-07-25T19:37:41.045Z,11.23
2022-07-25T19:39:43.476Z,11.50
2022-07-25T19:41:47.138Z,12.33
2022-07-25T19:43:49.728Z,12.10
2022-07-25T19:45:52.400Z,11.57
2022-07-25T19:47:55.048Z,10.03
2022-07-25T19:49:57.354Z,16.20
2022-07-25T19:52:00.724Z,12.90
2022-07-25T19:54:03.736Z,13.37
2022-07-25T19:56:08.421Z,14.60
2022-07-25T19:58:10.687Z,12.50
2022-07-25T20:00:13.461Z,13.40
2022-07-25T20:02:15.608Z,11.70
2022-07-25T20:04:17.891Z,10.63
2022-07-25T20:06:20.830Z,14.53
2022-07-25T20:08:22.989Z,11.43
2022-07-25T20:10:25.151Z,10.90
2022-07-25T20:12:27.292Z,11.13
2022-07-25T20:14:29.406Z,14.40
2022-07-25T20:16:31.809Z,13.17
2022-07-25T20:18:34.069Z,12.80
2022-07-25T20:20:36.306Z,12.67
2022-07-25T20:22:38.476Z,10.97
2022-07-25T20:24:40.719Z,12.90
2022-07-25T20:26:42.879Z,10.60
2022-07-25T20:28:45.431Z,11.40
2022-07-25T20:30:47.799Z,13.37
2022-07-25T20:32:50.039Z,13.97
2022-07-25T20:34:53.163Z,11.37
2022-07-25T20:36:55.203Z,12.43
2022-07-25T20:38:57.305Z,10.57
2022-07-25T20:41:00.978Z,11.23
2022-07-25T20:43:04.101Z,9.70
2022-07-25T20:45:07.051Z,11.13
2022-07-25T20:47:10.043Z,11.40
2022-07-25T20:49:13.635Z,9.50
2022-07-25T20:51:16.587Z,9.67
2022-07-25T20:53:19.671Z,13.40
2022-07-25T20:55:22.475Z,13.53
2022-07-25T20:57:24.629Z,12.73
2022-07-25T20:59:26.806Z,10.90
2022-07-25T21:01:29.040Z,9.40
2022-07-25T21:03:31.367Z,11.50
2022-07-25T21:05:33.866Z,12.60
2022-07-25T21:07:35.933Z,12.43
2022-07-25T21:09:38.085Z,11.80
2022-07-25T21:11:40.289Z,10.67
2022-07-25T21:13:42.472Z,10.37
2022-07-25T21:15:44.600Z,13.17
2022-07-25T21:17:46.755Z,13.67
2022-07-25T21:19:48.899Z,11.37
2022-07-25T21:21:51.350Z,13.17
2022-07-25T21:23:53.720Z,15.03
2022-07-25T21:25:55.926Z,10.67
2022-07-25T21:27:58.073Z,11.30
2022-07-25T21:30:00.517Z,10.13
2022-07-25T21:32:04.367Z,8.90
2022-07-25T21:34:06.615Z,11.50
2022-07-25T21:36:09.255Z,12.13
2022-07-25T21:38:11.502Z,11.87
2022-07-25T21:40:29.051Z,8.70
2022-07-25T21:42:31.295Z,8.30
2022-07-25T21:44:33.423Z,11.43
2022-07-25T21:46:35.575Z,11.13
2022-07-25T21:48:56.854Z,9.13
2022-07-25T21:50:59.582Z,14.87
2022-07-25T21:53:02.726Z,9.60
2022-07-25T21:55:05.309Z,12.37
2022-07-25T21:57:07.480Z,7.90
2022-07-25T21:59:16.160Z,8.97
2022-07-25T22:01:21.557Z,10.93
2022-07-25T22:03:23.863Z,9.10
2022-07-25T22:05:26.207Z,12.23
2022-07-25T22:07:28.694Z,10.23
2022-07-25T22:09:31.052Z,8.83
2022-07-25T22:11:42.601Z,10.40
2022-07-25T22:13:48.576Z,9.13
2022-07-25T22:15:50.700Z,8.83
2022-07-25T22:17:52.814Z,15.43
2022-07-25T22:19:54.965Z,12.17
2022-07-25T22:21:57.189Z,10.90
2022-07-25T22:23:59.450Z,12.33
2022-07-25T22:26:01.680Z,11.97
2022-07-25T22:28:04.076Z,11.80
2022-07-25T22:30:07.020Z,10.13
2022-07-25T22:32:09.280Z,10.90
2022-07-25T22:34:11.692Z,12.40
2022-07-25T22:36:13.988Z,11.13
2022-07-25T22:38:16.366Z,20.53
2022-07-25T22:40:18.581Z,12.63
2022-07-25T22:42:20.717Z,12.17
2022-07-25T22:44:23.159Z,9.83
2022-07-25T22:46:25.342Z,12.00
2022-07-25T22:48:27.742Z,11.90
2022-07-25T22:50:29.924Z,12.40
2022-07-25T22:52:32.226Z,9.83
2022-07-25T22:54:34.956Z,13.27
2022-07-25T22:56:37.145Z,12.00
2022-07-25T22:58:39.265Z,22.57
2022-07-25T23:00:41.463Z,12.30
2022-07-25T23:02:43.575Z,13.93
2022-07-25T23:04:45.765Z,9.73
2022-07-25T23:06:47.949Z,11.10
2022-07-25T23:08:50.327Z,11.57
2022-07-25T23:10:52.444Z,10.77
2022-07-25T23:12:54.699Z,13.30
2022-07-25T23:14:56.882Z,14.00
2022-07-25T23:17:17.061Z,10.20
2022-07-25T23:19:19.538Z,11.30
2022-07-25T23:21:25.117Z,12.50
2022-07-25T23:23:27.546Z,13.30
2022-07-25T23:25:29.896Z,12.27
2022-07-25T23:27:34.838Z,10.03
2022-07-25T23:29:37.633Z,10.23
2022-07-25T23:31:39.829Z,10.30
2022-07-25T23:33:42.095Z,11.73
2022-07-25T23:35:44.834Z,11.27
2022-07-25T23:37:47.021Z,17.47
2022-07-25T23:39:49.439Z,13.10
2022-07-25T23:41:52.149Z,13.63
2022-07-25T23:43:57.474Z,11.20
2022-07-25T23:46:01.530Z,13.97
2022-07-25T23:48:04.848Z,12.57
2022-07-25T23:50:07.584Z,18.70
2022-07-25T23:52:09.663Z,12.47
2022-07-25T23:54:11.864Z,12.50
2022-07-25T23:56:18.763Z,14.80
2022-07-25T23:58:22.980Z,13.60
